Nous contacter

Chronopale
59 Rue Léonce TOBO
62200 Boulogne sur mer
06 60 17 22 13
contact@chronopale.fr
www.chronopale.fr

 

21.1KmHoublon

Le Semi du Houblon 21,1 Km
Rg Dossard Nom Prénom Temps Cat Rg Cat Club KM/h Temps/Km
1 21933 LEBOUCHER  Jerome 1:18:25 M0M 1 . 16.145 03:43
2 21707 MARCINKOWSKI  Mathieu 1:28:48 M0M 2 . 14.257 04:13
3 21523 FICOT  Pierre 1:29:47 M2M 1 . 14.101 04:15
4 21275 DELACRE  Sylvain 1:41:17 M2M 2 . 12.500 04:48
5 22010 SANSON  Caroline 1:44:35 M1F 1 . 12.105 04:57
6 21213 DEHUYSSER  Jean-Luc 1:45:34 M5M 1 . 11.992 05:00
7 21720 BECQUET  Christophe 1:45:51 M1M 1 . 11.960 05:01
8 21731 TALPAERT  Felix 1:46:28 M1M 2 . 11.891 05:03
9 21039 SCHEPPER  ISABELLE 1:46:33 M1F 2 . 11.882 05:03
10 21903 LEFEBVRE  Thomas 1:46:46 M0M 3 . 11.858 05:04
11 21038 LEMAIRE  Loic 1:48:55 M0M 4 . 11.624 05:10
12 21816 TERROIR  Laurent 1:48:57 M1M 3 . 11.620 05:10
13 21358 FOURE  Timothee 1:49:47 M1M 4 . 11.532 05:12
14 21738 DECROIX  Johann 1:50:09 M1M 5 . 11.493 05:13
15 21664 DIEU  Stephanie 1:51:18 M2F 1 . 11.375 05:16
16 21587 COCHIN  Davy 1:51:31 M2M 3 . 11.353 05:17
17 21835 ABIDI  Samyr 1:51:31 M1M 6 . 11.353 05:17
18 21337 CORNET  Laetitia 1:52:37 M1F 3 Elan frugeois 11.242 05:20
19 21519 THIBAUT  Sebastien 1:53:25 M1M 7 . 11.162 05:23
20 21785 BARTOLINI  Clement 1:54:14 M0M 5 . 11.083 05:25
21 21722 GUERCHOUX  Christophe 1:54:23 M2M 4 . 11.068 05:25
22 21668 GASC  Lorryanne 1:54:27 M1F 4 . 11.062 05:25
23 21784 BARTOLINI  Pauline 1:54:39 M0F 1 . 11.042 05:26
24 21559 NOULLEZ  Sebastien 1:55:30 M2M 5 . 10.961 05:28
25 21962 ROBERT  Gregoire 1:55:44 SEM 1 . 10.939 05:29
26 21373 TOUTAIN  JULIETTE 1:55:47 M2F 2 COURIR AU CHU Amiens 10.934 05:29
27 21957 MURZIN  Sebastien 1:56:25 M3M 1 Fspn 10.875 05:31
28 22017 MEIRLAND  Ludovic 1:56:47 M0M 6 . 10.841 05:32
29 21130 POUCHAIN  FLORENCE 1:57:34 M2F 3 AUBIGNY RUNNING 10.768 05:34
30 21995 REGNIER  Olivier 1:57:42 M3M 2 . 10.756 05:35
31 21333 CARRU  Julien 1:57:54 M0M 7 Run'in club 10.738 05:35
32 21495 LEGRAND  Aurelien 1:57:55 SEM 2 . 10.736 05:35
33 21230 FEUTRY  Christophe 1:58:57 M4M 1 AS Marck 10.643 05:38
34 21667 TALLEU LIMONGELLI  Christelle 1:59:03 M1F 5 . 10.634 05:39
35 21930 CHAMPALLOUX  Mickael 1:59:12 M2M 6 . 10.621 05:39
36 21817 WAILLE  Jerome 1:59:31 M1M 8 . 10.593 05:40
37 21690 BAUDE  Valerie 1:59:48 M2F 4 . 10.568 05:41
38 21805 MACE  Didier 2:01:34 M4M 2 . 10.414 05:46
39 21147 HURTEVENT  Julien 2:02:28 M0M 8 . 10.338 05:48
40 21961 SZCZEPANIAK  Pascale 2:02:46 M5F 1 . 10.312 05:49
41 21682 WITTEVRONGEL  Pierre 2:03:46 M0M 9 . 10.229 05:52
42 21724 DIARD  Christelle 2:04:11 M4F 1 . 10.195 05:53
43 21528 ROELS  Pascal 2:04:49 M2M 7 as marck 10.143 05:55
44 21318 MOLENBERGHS  Laurent 2:04:49 M4M 3 . 10.143 05:55
45 21736 GOUILLIART  Romain 2:05:26 SEM 3 . 10.093 05:57
46 21717 WINTREBERT  James 2:05:30 M2M 8 . 10.088 05:57
47 21874 BECQUET  Cedric 2:05:33 M0M 10 . 10.084 05:57
48 21490 WARYN  Mickael 2:05:48 M1M 9 . 10.064 05:58
49 21345 BERTHELEMY  Fabien 2:05:49 M2M 9 . 10.062 05:58
50 21359 HALLUIN  Sebastien 2:05:49 M2M 10 . 10.062 05:58
51 21536 VERCOUTRE  Vincent 2:05:54 M0M 11 As marck 10.056 05:58
52 21569 GRANDVAL  Jeremy 2:06:16 M2M 11 saint venant athlétisme 10.026 05:59
53 21553 MINEUR  Baptiste 2:06:36 SEM 4 . 10.000 06:00
54 21980 BOUCHART  Maxime 2:06:36 SEM 5 . 10.000 06:00
55 21554 MINEUR  Xavier 2:06:36 M2M 12 . 10.000 06:00
56 21231 ROSE  Frederic 2:06:47 M2M 13 . 9.986 06:01
57 22014 SENECHAL  Jerome 2:06:51 M1M 10 . 9.980 06:01
58 21697 GOUILLIART  Aymeric 2:07:08 M1M 11 . 9.958 06:02
59 21285 MUSSOTTE  Laurent 2:07:12 M4M 4 . 9.953 06:02
60 21887 JAECQUES  Aurelien 2:07:33 M0M 12 . 9.926 06:03
61 21325 DEWEVRE  Emmanuel 2:07:47 M1M 12 . 9.907 06:03
62 21578 SWITONSKI  Ludivine 2:07:54 M1F 6 . 9.898 06:04
63 21579 SWITONSKI  Olivier 2:07:54 M3M 3 . 9.898 06:04
64 21573 LECOCQ  Martial 2:07:54 M1M 13 saint venant athlétisme 9.898 06:04
65 21645 SAUVAGE  Julien 2:08:11 M2M 14 . 9.876 06:05
66 21907 SIMON  Etienne 2:08:18 SEM 6 . 9.867 06:05
67 21580 TRINEL  Sebastien 2:08:35 M0M 13 saint venant athlétisme 9.846 06:06
68 21849 SAMOY  Wilfried 2:09:10 M1M 14 . 9.801 06:07
69 21583 BRASSEUR  Christophe 2:09:10 M2M 15 . 9.801 06:07
70 21570 BOSSAERT  Patrick 2:09:32 M1M 15 . 9.774 06:08
71 21888 DELAHAYE  Freddy 2:09:54 SEM 7 . 9.746 06:09
72 21753 PLAQUET  David 2:10:43 M3M 4 . 9.685 06:12
73 21457 VASSEUR  Jerome 2:10:45 M0M 14 . 9.683 06:12
74 21006 LEMAIRE  Perrine 2:10:52 M0F 2 . 9.674 06:12
75 21723 DIARD  Pascal 2:12:16 M4M 5 . 9.572 06:16
76 21683 GUILBERT  Mickael 2:12:36 M2M 16 . 9.548 06:17
77 21132 LEFEBVRE  Arnaud 2:12:41 M1M 16 . 9.542 06:17
78 21185 LENUD  LUDOVIC 2:13:42 M1M 17 . 9.469 06:20
79 21860 LEWILLE  Herbert 2:13:57 M3M 5 . 9.451 06:21
80 21947 DELHELLE  Damien 2:14:02 M2M 17 . 9.445 06:21
81 21878 GALEOTTI  Pascal 2:14:05 M4M 6 . 9.442 06:21
82 21008 DEBUSSCHERE  Mikael 2:16:00 M2M 18 . 9.309 06:27
83 21616 DEU  David 2:16:16 M0M 15 . 9.291 06:27
84 21636 DARGUESSE  Capucine 2:16:21 SEF 1 . 9.285 06:28
85 21960 CAMBOULIVES  Vincent 2:16:22 M0M 16 . 9.284 06:28
86 21744 BERTELOOT  Thomas 2:16:43 M1M 18 . 9.260 06:29
87 21560 TAFFIN  Michel 2:16:55 M3M 6 . 9.247 06:29
88 21582 BEDDAH  Mustapha 2:16:55 M1M 19 saint venant athlétisme 9.247 06:29
89 21873 LORIDAN  Romain 2:17:11 SEM 8 . 9.229 06:30
90 21983 VILLAIN  Hugo 2:17:48 SEM 9 . 9.187 06:32
91 21538 HUQUEBART  Christophe 2:18:02 M1M 20 . 9.172 06:33
92 21215 PENNE  Romain 2:18:10 SEM 10 . 9.163 06:33
93 21283 MUSSOTTE  Estelle 2:18:22 SEF 2 . 9.150 06:33
94 21721 BEAUSSART  Franck 2:19:31 M2M 19 . 9.074 06:37
95 21105 LADELNET  Steeve 2:19:54 SEM 11 . 9.049 06:38
96 21106 TANG  Kim Tien 2:19:54 M0M 17 . 9.049 06:38
97 21859 LADELNET  Steeve 2:19:54 SEM 12 . 9.049 06:38
98 21679 BAUDRY  Julien 2:21:14 M1M 21 . 8.964 06:42
99 21324 LEWILLE  Patrice 2:22:02 M2M 20 . 8.913 06:44
100 21882 PICQUE  Marie Laure 2:22:39 M0F 3 . 8.875 06:46
101 22015 VOLPOET  Florent 2:22:50 SEM 13 . 8.863 06:46
102 22012 BERENGUE  Celine 2:22:54 M1F 7 . 8.859 06:46
103 22011 BERENGUE  Frederic 2:22:54 M1M 22 . 8.859 06:46
104 21945 HULOT  Sophie 2:23:30 M0F 4 . 8.822 06:48
105 21944 HUEZ  Ludovic 2:23:30 M2M 21 . 8.822 06:48
106 21166 DEREUMAUX  Nicolas 2:23:34 M1M 23 . 8.818 06:48
107 21883 KAZIMIERSKI  Aurelie 2:23:39 SEF 3 . 8.813 06:48
108 21881 BONVARLET  Raynald 2:23:40 M0M 18 . 8.812 06:49
109 21141 RIQUET  MARTIAL 2:23:46 M1M 24 . 8.806 06:49
110 21853 DIERICKX  Marion 2:23:47 SEF 4 . 8.805 06:49
111 22016 MARTIN  Lucie 2:23:47 SEF 5 . 8.805 06:49
112 21071 BLONDEL  Emmanuel 2:23:58 M0M 19 . 8.794 06:49
113 21429 GENTIL  Sophie 2:25:12 M0F 5 . 8.719 06:53
114 21264 BREBION  Jonathan 2:25:14 M1M 25 . 8.717 06:53
115 21732 DELBART  Marion 2:25:28 M1F 8 . 8.703 06:54
116 21733 GOBAILLE  Marie 2:25:29 M1F 9 . 8.702 06:54
117 21181 CHAMPENOIS  Jerome 2:25:35 M2M 22 . 8.696 06:54
118 21186 VERQUIN  Yves-Marie 2:25:38 M2M 23 EA Douchy 8.693 06:54
119 21447 FERNANDES  Luisa 2:25:45 M4F 2 . 8.686 06:54
120 21444 FERNANDES  Maria 2:25:46 M3F 1 . 8.685 06:55
121 21581 TAFFIN  Thibault 2:25:47 M3M 7 saint venant athlétisme 8.684 06:55
122 21604 PENIN  Gregoire 2:25:48 M2M 24 saint venant athlétisme 8.683 06:55
123 21970 GHYSEL  Yohann 2:26:03 SEM 14 . 8.668 06:55
124 21289 GUYOT  Nelly 2:26:42 M2F 5 artois athlétisme 8.630 06:57
125 21290 GUYOT  Camille 2:26:42 SEF 6 . 8.630 06:57
126 21308 DJEBBARI  Chabane 2:26:48 M5M 2 Aca Beauvais 8.624 06:57
127 21255 DUSART  Julien 2:26:58 M0M 20 . 8.614 06:58
128 21014 CAMBOULIVES  Chloe 2:26:59 M0F 6 . 8.613 06:58
129 21256 DUSART  Clement 2:27:00 SEM 15 . 8.612 06:58
130 21081 BUTEZ  Sebastien 2:28:28 M2M 25 . 8.527 07:02
131 21391 NAUD  Christophe 2:29:05 M3M 8 . 8.492 07:04
132 21920 EUZENAT  Sophie 2:29:21 M2F 6 . 8.477 07:05
133 21918 EUZENAT  David 2:29:21 M3M 9 . 8.477 07:05
134 21919 DURAND  Emmanuelle 2:29:21 M1F 10 . 8.477 07:05
135 21755 GAVELLE  Patrick 2:29:56 M2M 26 . 8.444 07:06
136 21754 PLAQUET  Helene 2:29:56 M2F 7 . 8.444 07:06
137 21027 DEU  Jonathan 2:29:56 M0M 21 . 8.444 07:06
138 21018 DUBOIS  Pascal 2:29:57 M2M 27 . 8.443 07:06
139 21004 VANHEDDEGEM  David 2:29:57 M1M 26 . 8.443 07:06
140 21003 BOSQUET  Sophie 2:29:57 M1F 11 . 8.443 07:06
141 21737 DEU  Corentin 2:29:58 SEM 16 . 8.442 07:06
142 21085 BEAUCHAMP  PHILIPPE 2:29:58 M2M 28 . 8.442 07:06
143 21593 BLANCKAERT  Tony 2:29:58 M3M 10 . 8.442 07:06
144 21347 BRUNQUET  ERIC 2:30:02 M5M 3 . 8.438 07:07
145 21464 CLAIRET  Yannick 2:30:03 M2M 29 ES ARQUES 8.437 07:07
146 21420 DEMOL  Sebastien 2:30:12 M1M 27 . 8.429 07:07
147 21574 LOEULLIER  Betty 2:30:18 M2F 8 . 8.423 07:07
148 21640 POURCHEL  Florian 2:30:31 SEM 17 . 8.411 07:08
149 21242 RZASA  Patrick 2:30:43 M4M 7 . 8.400 07:09
150 21133 DEVULDER  Michael 2:30:52 M2M 30 . 8.392 07:09
151 21458 GUETTET  Nicolas 2:31:18 M0M 22 . 8.367 07:10
152 21829 DUVIEUXBOURG  David 2:31:22 M1M 28 . 8.364 07:10
153 21954 MOREAU  Yann 2:31:22 M0M 23 . 8.364 07:10
154 21815 DARCHEVILLE  Christophe 2:31:22 M3M 11 . 8.364 07:10
155 21284 MUSSOTTE  Catherine 2:31:35 M4F 3 . 8.352 07:11
156 21614 NAKACHE  Denis 2:32:01 M5M 4 ACA BEAUVAIS 8.328 07:12
157 21615 SERVAIS  Catherine 2:32:01 M3F 2 CPBO 8.328 07:12
158 21814 COURTIN  Mariline 2:33:09 M1F 12 . 8.266 07:15
159 21813 TERROIR  Francois 2:33:19 M2M 31 . 8.257 07:16
160 21328 JASINSKI  Gaetan 2:33:21 M2M 32 . 8.256 07:16
161 21329 LANVIN  Cecile 2:33:21 M1F 13 . 8.256 07:16
162 21354 DELANGHE  CATHY 2:33:46 M3F 3 . 8.233 07:17
163 21353 DELANGHE  PATRICK 2:33:46 M6M 1 . 8.233 07:17
164 21349 BALLE  Gregory 2:33:59 M1M 29 . 8.222 07:18
165 21510 BONVOISIN  Eddy 2:34:03 M2M 33 . 8.218 07:18
166 21511 ROBILLARD  Helene 2:34:04 M1F 14 . 8.217 07:18
167 21958 FABRE  Lucas 2:34:28 SEM 18 . 8.196 07:19
168 21959 MEDER  Jean-Francois 2:34:28 M5M 5 . 8.196 07:19
169 21470 BAROUX  NICOLAS 2:34:44 M1M 30 . 8.182 07:20
170 21544 ZAWADZINSKI  Marc 2:34:45 M1M 31 RC de LENS athlètisme 8.181 07:20
171 21218 CHOCHOY  Sebastien 2:35:10 M1M 32 . 8.159 07:21
172 21542 BLAEVOET  Julie 2:35:10 M0F 7 . 8.159 07:21
173 21078 LINSTER  Arnaud 2:35:15 M1M 33 . 8.155 07:21
174 21263 ANSEL  Johann 2:35:19 M2M 34 . 8.151 07:22
175 21217 MARCOTTE  Jean Philippe 2:35:57 M1M 34 . 8.118 07:23
176 21766 BOUQUILLION  Maxime 2:36:12 SEM 19 . 8.105 07:24
177 21658 BOUQUILLION  Christophe 2:36:12 M3M 12 . 8.105 07:24
178 21761 BEAURAIN  Remi 2:36:12 M1M 35 . 8.105 07:24
179 21694 BOUQUILLION  Benjamin 2:36:12 SEM 20 . 8.105 07:24
180 21760 FARDOUX  Patrick 2:36:13 M3M 13 . 8.104 07:24
181 21934 COURTIN  Ludovic 2:36:40 M1M 36 . 8.081 07:25
182 21463 COLART  Julien 2:36:40 M1M 37 . 8.081 07:25
183 21236 WADOUX  Nicolas 2:36:49 M1M 38 . 8.073 07:26
184 21686 HONNART  Laura 2:37:20 SEF 7 . 8.047 07:27
185 21912 BONNIERE  Lucien 2:37:23 SEM 21 . 8.044 07:28
186 21020 ROEGIS  Sylvie 2:37:30 M5F 2 . 8.038 07:28
187 21012 HEDGE  Marine 2:37:30 SEF 8 . 8.038 07:28
188 21011 PLANQUE  Geoffrey 2:37:30 SEM 22 . 8.038 07:28
189 21182 CHAMPENOIS  Kathy 2:37:30 M2F 9 EA Douchy 8.038 07:28
190 21323 DEHAY  Corinne 2:37:34 M2F 10 . 8.035 07:28
191 21935 BEGHYN  Julien 2:37:36 M0M 24 . 8.033 07:28
192 21913 NORMAND  Marc-Antoine 2:37:50 SEM 23 . 8.021 07:29
193 21833 FRIEDMANN  Marianne 2:38:02 M1F 15 . 8.011 07:29
194 21500 CARON  Martin 2:38:26 SEM 24 . 7.991 07:31
195 21499 ELLART  Marine 2:38:27 SEF 9 . 7.990 07:31
196 21089 REQUIN  Chloe 2:38:32 M0F 8 . 7.986 07:31
197 21090 REQUIN  Antoine 2:38:32 M0M 25 . 7.986 07:31
198 21093 JUNG  REMY 2:38:46 M4M 8 . 7.974 07:31
199 21460 MUTEL  Pierre 2:38:58 M1M 39 . 7.964 07:32
200 22009 MOREL  Alan 2:39:01 M1M 40 . 7.961 07:32
201 21916 HEREN  MICHEL 2:39:01 M5M 6 . 7.961 07:32
202 21229 TISON  LAURENCE 2:39:01 M2F 11 US CAMON 7.961 07:32
203 22008 BOUCHER  Celine 2:39:01 M1F 16 US Camon 7.961 07:32
204 21228 TISON  STEPHANE 2:39:02 M3M 14 . 7.961 07:32
205 21092 JUNG  Regine 2:39:16 M3F 4 . 7.949 07:33
206 21847 SERRANO  Alexandre 2:39:19 M6M 2 . 7.946 07:33
207 21956 CATOEN  Stephanie 2:39:31 M2F 12 . 7.936 07:34
208 21992 FICHEL  Christophe 2:40:07 M0M 26 . 7.907 07:35
209 21808 FROMENT  Mickael 2:40:08 M2M 35 Omnisports airois athlétisme 7.906 07:35
210 21807 GUILBERT  Freddy 2:40:08 M2M 36 Omnisports airois athlétisme 7.906 07:35
211 21909 FERNANE  Farouk 2:40:17 M0M 27 . 7.899 07:36
212 22000 DE CALAN  Pierre-Geoffroy 2:40:32 M0M 28 . 7.886 07:36
213 21789 MARQUIS  Kevin 2:41:46 SEM 25 . 7.826 07:40
214 21788 MARQUIS  Jeremy 2:41:46 SEM 26 . 7.826 07:40
215 21086 LAMORILLE  Jeremie 2:42:30 M0M 29 Courir dans le lumbrois 7.791 07:42
216 21194 DELPIERRE  Johan 2:42:31 M0M 30 . 7.790 07:42
217 21047 COUVELARD  JOEL 2:42:33 M0M 31 Courir dans le lumbrois 7.788 07:42
218 22005 DRUT  Fanny 2:42:33 SEF 10 . 7.788 07:42
219 21269 TRINEL  Pauline 2:42:45 SEF 11 . 7.779 07:43
220 21268 TURPIN  Gaetan 2:42:45 SEM 27 . 7.779 07:43
221 21451 BLONDEL  THOMAS 2:43:17 M1M 41 . 7.753 07:44
222 21450 GUETTAT  Eloise 2:43:18 M0F 9 . 7.753 07:44
223 21671 POIRIER  Ludovic 2:43:29 M1M 42 . 7.744 07:45
224 21287 QUILLET  Didier 2:44:06 M2M 37 . 7.715 07:47
225 21818 MATTON  Cedric 2:44:32 M1M 43 . 7.694 07:48
226 21812 POUPE  Moran 2:44:32 M1M 44 . 7.694 07:48
227 22006 PETITPAS  Melanie 2:44:44 SEF 12 . 7.685 07:48
228 22007 PETITPAS  Stephane 2:44:44 SEM 28 . 7.685 07:48
229 21932 POUILLE  Melitine 2:44:45 SEF 13 CDL 7.684 07:48
230 21673 LEPRINCE  Helene 2:45:18 M0F 10 Phalempin Atletico club 7.659 07:50
231 21674 CAILLET  Karim 2:45:19 M1M 45 . 7.658 07:50
232 21864 CAUPAIN  Catherine 2:46:01 M3F 5 As Marck 7.626 07:52
233 21778 TAHON  Pierre Laurent 2:46:01 M3M 15 . 7.626 07:52
234 21428 FERNANDES  Joaquim 2:46:06 M4M 9 . 7.622 07:52
235 21527 ROLLET  Michael 2:46:07 M1M 46 . 7.621 07:52
236 21431 BERTELOOT  David 2:46:08 M2M 38 . 7.620 07:52
237 21274 BEYAERT  Julien 2:46:54 M0M 32 . 7.585 07:55
238 21979 RITAINE  Frederic 2:47:21 M2M 39 . 7.565 07:56
239 21596 MANAS  Manuel 2:47:21 M0M 33 . 7.565 07:56
240 21700 REGNIEZ  Mickael 2:48:36 M2M 40 Courir dans le lumbrois 7.509 07:59
241 21400 DE ZUTTER  Clement 2:49:53 SEM 29 Vytajog 7.452 08:03
242 21281 DORE  Sylvain 2:49:54 SEM 30 . 7.451 08:03
243 21806 DEVAUX  Matthieu 2:50:08 M0M 34 . 7.441 08:04
244 21629 GRELLAT  Gilles 2:50:19 M3M 16 . 7.433 08:04
245 21908 GARCIA  Jean Philippe 2:50:19 M5M 7 . 7.433 08:04
246 21631 HOCEPIED  Frederic 2:50:20 M1M 47 . 7.432 08:04
247 21139 GHYS  Delphine 2:50:58 M2F 13 . 7.405 08:06
248 21393 TISON  Anne Sophie 2:50:59 M2F 14 . 7.404 08:06
249 21121 DELECROIX  Alain 2:51:06 M2M 41 . 7.399 08:07
250 21361 FAVIER  Patrice 2:51:25 M3M 17 . 7.386 08:07
251 21312 CROMBEZ  Jerome 2:52:14 M0M 35 . 7.350 08:10
252 21877 VASSEUR  Benedicte 2:52:56 M3F 6 . 7.321 08:12
253 21876 LEMOR  Elodie 2:52:57 M2F 15 . 7.320 08:12
254 21280 PARENT  Cecile 2:53:40 M4F 4 . 7.290 08:14
255 21225 AMEL  Boumedienne 2:54:24 M3M 18 . 7.259 08:16
256 21368 BOULOY  Philippe 2:54:26 M4M 10 . 7.258 08:16
257 21879 MAQUIN  Hugues 2:54:26 M0M 36 Courir dans le lumbrois 7.258 08:16
258 21984 COUVREUR  Thomas 2:54:29 ESM 1 . 7.256 08:16
259 21446 LEGRAND  Daniele 2:54:35 M5F 3 ACA Beauvais 7.252 08:16
260 21322 CAMARA  Lamba 2:54:35 M7M 1 . 7.252 08:16
261 21965 CAPILLON  Jeremie 2:54:56 M2M 42 . 7.237 08:17
262 21975 WADOUX  Cyril 2:54:56 M0M 37 . 7.237 08:17
263 21630 THEPKAISONE  Michel 2:55:03 M3M 19 . 7.232 08:18
264 21999 ROBILLARD  AURELIE 2:55:43 SEF 14 . 7.205 08:20
265 21861 DEPAUW  Rudy 2:55:43 SEM 31 . 7.205 08:20
266 21981 COUVREUR  Bertrand 2:55:46 M1M 48 . 7.203 08:20
267 21786 TANCHON  Sylvain 2:55:49 M1M 49 . 7.201 08:20
268 21456 D'ALLENDE  Regis 2:55:50 M4M 11 . 7.200 08:20
269 21122 DUCAMP  Laurent 2:55:50 M0M 38 . 7.200 08:20
270 21982 COUVREUR  Valerie 2:56:00 M1F 17 . 7.193 08:20
271 21823 DENAES  Aurore 2:56:12 M0F 11 . 7.185 08:21
272 21543 COOL  Alain 2:56:44 M6M 3 . 7.163 08:23
273 21695 BREVIERE  Christophe 2:56:50 M1M 50 . 7.159 08:23
274 21251 GARENAUX  Frederic 2:57:03 M6M 4 . 7.151 08:23
275 21250 GARENAUX  Clemence 2:57:04 M0F 12 . 7.150 08:24
276 21134 FRANCQ  Sebastien 2:57:29 M1M 51 . 7.133 08:25
277 21756 CROQUELOIS  Mickael 2:57:37 M2M 43 . 7.128 08:25
278 22002 DEPAEPE  Jerome 2:57:39 M1M 52 . 7.126 08:25
279 21026 GUILLEMIN  Christophe 2:58:01 M3M 20 . 7.112 08:26
280 21661 PUYPE  Blandine 2:58:12 M0F 13 . 7.104 08:27
281 21696 BREVIERE  Delphine 2:58:42 M1F 18 . 7.084 08:28
282 21701 MAMETZ  BERENGERE 2:59:46 M1F 19 . 7.042 08:31
283 21702 BAUCHET  Amelie 3:00:00 M1F 20 . 7.033 08:32
284 21203 OBERT  Camille 3:00:04 SEM 32 . 7.031 08:32
285 21396 ROUSSEL  Catherine 3:00:12 M2F 16 . 7.026 08:32
286 21224 ROUSSEL  Stephane 3:00:13 M2M 44 . 7.025 08:32
287 21598 MALBAUT  Aurore 3:00:16 M1F 21 . 7.023 08:33
288 21276 LAURENT  Mathieu 3:00:30 M1M 53 . 7.014 08:33
289 21316 CALMANT  Beverley 3:00:30 M3F 7 AS MARCK 7.014 08:33
290 21986 BODEL  VIRGINIE 3:00:30 M1F 22 . 7.014 08:33
291 21315 BERTELOOT  Adele 3:00:30 M1F 23 . 7.014 08:33
292 21405 SMETTE  Isabelle 3:00:31 M1F 24 . 7.013 08:33
293 21746 MOUCHON  Jennifer 3:00:35 M1F 25 . 7.011 08:34
294 21747 PELERIN  Melanie 3:00:35 M1F 26 . 7.011 08:34
295 21606 BRIDOUX  Peggy 3:00:35 M1F 27 . 7.011 08:34
296 22013 PELERIN  Pascal 3:00:35 M3M 21 . 7.011 08:34
297 21703 MAMETZ  Valerie 3:00:35 M1F 28 . 7.011 08:34
298 21948 DUSAUTOIR  Tanguy 3:00:43 SEM 33 . 7.005 08:34
299 21951 PRUDHOMME  Georges 3:00:44 M4M 12 courir dans le lubrois 7.005 08:34
300 21019 DESEILLE  Philippe 3:00:54 M4M 13 . 6.998 08:34
301 21021 DESEILLE  Christel 3:00:54 M3F 8 . 6.998 08:34
302 21997 BREVIERE  Amandine 3:01:02 M0F 14 . 6.993 08:35
303 21513 CRESPIN  Olivier 3:02:19 M2M 45 . 6.944 08:38
304 21501 DEPECKER  Emmanuel 3:02:19 M2M 46 . 6.944 08:38
305 21494 CONNOIOUX  Sebastien 3:02:19 M2M 47 . 6.944 08:38
306 21028 D'HUBERT  France 3:02:35 M3F 9 . 6.934 08:39
307 21364 BIZET  Cecilia 3:02:35 M2F 17 . 6.934 08:39
308 21029 HUGUE  Christophe 3:02:36 M3M 22 . 6.933 08:39
309 21076 DIGNOCOURT  Aurelien 3:02:36 SEM 34 . 6.933 08:39
310 21462 LEBRIEZ  Vincent 3:02:37 M1M 54 . 6.933 08:39
311 21454 LENSON  Maxime 3:02:49 SEM 35 . 6.925 08:40
312 21363 DUPREYS  Pamela 3:03:39 M3F 10 . 6.894 08:42
313 21162 BRINGUEZ  Allan 3:04:30 SEM 36 . 6.862 08:45
314 21138 GHYS  Gerald 3:05:48 M2M 48 . 6.814 08:48
315 21841 LECUYER  Philippe 3:06:27 M4M 14 . 6.790 08:50
316 21842 MEUNIER  Thierry 3:06:28 M5M 8 . 6.789 08:50
317 21840 MARTINEZ  Wesley 3:06:28 M1M 55 . 6.789 08:50
318 21848 TRAN  Michel 3:06:28 SEM 37 . 6.789 08:50
319 21843 EDWIGES  Maurice 3:06:28 M5M 9 . 6.789 08:50
320 21844 CALBRY  Pascal 3:06:29 M4M 15 . 6.789 08:50
321 21845 SIMONET  Philippe 3:06:30 M6M 5 94062 6.788 08:50
322 21846 BESNARD  Philippe 3:06:30 M5M 10 . 6.788 08:50
323 21469 DUHAMEL  Olivier 3:06:31 SEM 38 . 6.788 08:50
324 21571 DEBERRE  Christophe 3:06:31 M4M 16 . 6.788 08:50
325 21831 CARRIE  Nathalie 3:06:37 M1F 29 . 6.784 08:51
326 21113 FIEVEZ  Nicolas 3:06:39 M5M 11 OSMLOMME 6.783 08:51
327 21830 CARRIE  Francois 3:06:39 M2M 49 . 6.783 08:51
328 21540 PUKICA  Clement 3:06:57 SEM 39 Vafa 6.772 08:52
329 21532 HURET  Guillaume 3:06:57 M1M 56 . 6.772 08:52
330 21541 TIBERGHIEN  Hortense 3:06:57 SEF 15 . 6.772 08:52
331 21539 COET  Cassandre 3:06:58 SEF 16 . 6.771 08:52
332 21534 BASTIEN  Dominique 3:06:58 M4M 17 . 6.771 08:52
333 21533 BASTIEN  Nathalie 3:06:59 M1F 30 . 6.771 08:52
334 21455 D'ALLENDE  Muriel 3:07:05 M3F 11 . 6.767 08:52
335 21825 RICHEVAL  Cecile 3:07:21 M1F 31 Desvres athlétisme 6.757 08:53
336 21561 OLIVIER  Benoit 3:07:22 SEM 40 . 6.757 08:53
337 21827 MERLIN  Cathy 3:07:55 M1F 32 . 6.737 08:54
338 21562 CHARLEMAGNE  Anthony 3:08:01 SEM 41 . 6.733 08:55
339 21060 LEJEUNE  Sandrine 3:08:22 M3F 12 . 6.721 08:56
340 21745 PLANCKE  CHRISTIAN 3:08:22 M4M 18 . 6.721 08:56
341 21348 FRAN  Anna 3:08:22 SEF 17 . 6.721 08:56
342 21199 MIEZE  Samuel 3:09:07 M2M 50 . 6.694 08:58
343 21173 DARRE  Dylan 3:10:42 SEM 42 . 6.639 09:02
344 21175 RENAUX  Mathieu 3:10:42 SEM 43 . 6.639 09:02
345 21380 HENRY  Guirec 3:10:45 M1M 57 . 6.637 09:02
346 21392 TISON  Vincent 3:10:51 M2M 51 . 6.633 09:03
347 21258 CRESPIN  Nathalie 3:10:52 M5F 4 . 6.633 09:03
348 21556 LEJUSTE  Arnaud 3:11:41 M3M 23 . 6.605 09:05
349 21144 MAGINOT  Virginie 3:12:10 M1F 33 Courir dans le lumbrois 6.588 09:06
350 21949 DA COSTA  JULIEN 3:12:11 M0M 39 . 6.587 09:06
351 21145 DUSSOULIER  Thibault 3:12:13 M1M 58 Courir dans le lumbrois 6.586 09:07
352 21914 DUQUENNE  Claire 3:12:34 SEF 18 . 6.574 09:08
353 21774 PINAUDIER  Anais 3:12:34 M0F 15 . 6.574 09:08
354 21049 EVRARD  Laetitia 3:12:36 M2F 18 Courir dans le lumbrois 6.573 09:08
355 21048 EVRARD  Christophe 3:12:36 M3M 24 Courir dans le lumbrois 6.573 09:08
356 21344 REVEL  EMILIE 3:12:39 M1F 34 STADE LONGUENESSOIS 6.572 09:08
357 21967 WAROT  Alexandre 3:13:13 M0M 40 . 6.552 09:09
358 21994 PRUDHOMME  Francois 3:13:14 M0M 41 . 6.552 09:09
359 21201 CHOCHOI  Frederic 3:13:23 M1M 59 . 6.547 09:10
360 21666 FRUCHART  HELENE 3:13:36 M2F 19 . 6.539 09:11
361 21911 DUFOUR  Johan 3:13:36 M1M 60 . 6.539 09:11
362 21665 DUBOIS  FRANK 3:13:36 M3M 25 . 6.539 09:11
363 21509 GRAIN  Francois 3:13:46 SEM 44 . 6.534 09:11
364 21917 HARROCK  Marie 3:13:53 M0F 16 . 6.530 09:11
365 21910 BARREZ  Julie 3:13:58 SEF 19 . 6.527 09:12
366 21234 D€™HALLUIN  Emmanuel 3:14:06 M1M 61 . 6.522 09:12
367 21448 FERNANDES  Jose 3:14:25 M4M 19 . 6.512 09:13
368 21233 MENET  Virginie 3:14:26 M1F 35 . 6.511 09:13
369 21993 PAVIE  Remy 3:14:31 M0M 42 . 6.508 09:13
370 21237 HENNEQUIN  Franck 3:14:31 M0M 43 . 6.508 09:13
371 21157 WIECZOREK  Philippe 3:14:33 M3M 26 . 6.507 09:13
372 21171 DEPATY  Anne 3:14:40 M1F 36 . 6.503 09:14
373 21155 LEFRANCOIS  Celine 3:14:51 SEF 20 . 6.497 09:14
374 21154 FROMENT  Sandrine 3:14:51 M1F 37 . 6.497 09:14
375 21644 SAVARY  Gaetan 3:15:57 M0M 44 . 6.461 09:17
376 21685 DECHAMPS  Sebastien 3:16:01 M3M 27 . 6.459 09:17
377 21692 CIEUX  Catherine 3:16:02 M1F 38 . 6.458 09:17
378 21870 LECHAT  Christel 3:16:07 M0F 17 . 6.455 09:18
379 21867 MESMACQUE  Claude 3:16:08 M6M 6 . 6.455 09:18
380 21342 SALOME  Elisabeth 3:16:10 M3F 13 . 6.454 09:18
381 21343 WATRIN  Rene 3:16:11 M4M 20 . 6.453 09:18
382 21869 RENAUX  Claudine 3:16:15 M5F 5 . 6.451 09:18
383 21868 RENAUX  Christian 3:16:15 M5M 12 JLB 6.451 09:18
384 21865 FABIEN  Mesmacque 3:16:16 M0M 45 . 6.450 09:18
385 21866 MESMACQUE  Cedric 3:16:16 M0M 46 . 6.450 09:18
386 21002 LEGRAND  Ludovic 3:16:20 M2M 52 . 6.448 09:18
387 21382 VANDERHAEGHE  Emilie 3:16:20 M1F 39 . 6.448 09:18
388 21383 VANDERHAEGHE  Maxime 3:16:21 M0M 47 . 6.448 09:18
389 21950 HANSE  Gery 3:16:36 M0M 48 . 6.439 09:19
390 11033 STENNE  Elodie 3:17:36 SEF 21 . 6.407 09:22
391 21897 BARBIER  Adrien 3:18:08 SEM 45 . 6.390 09:23
392 21938 LECLERCQ  Benjamin 3:18:08 SEM 46 . 6.390 09:23
393 21925 JEAUNEAU  Mylene 3:18:19 M0F 18 . 6.384 09:24
394 21643 DUBRULLE  Benoit 3:18:23 JUM 1 . 6.382 09:24
395 21892 CALAIS  FABIEN 3:18:37 M1M 62 . 6.374 09:25
396 21650 LANCELLE  Pierre-Henry 3:18:42 SEM 47 . 6.371 09:25
397 21140 HOUTE  Gwendoline 3:19:23 SEF 22 Courir à Comines 6.350 09:27
398 21973 VANTOMME  Isabelle 3:19:23 M0F 19 . 6.350 09:27
399 21557 LEJUSTE  Marie-Jeanne 3:19:25 M3F 14 . 6.349 09:27
400 21061 GRARDEL  Bruno 3:19:25 M5M 13 . 6.349 09:27
401 21087 FRANSOIS  Cyril 3:19:25 M2M 53 . 6.349 09:27
402 21502 BACQ  Bernard 3:19:26 M5M 14 . 6.348 09:27
403 21422 VINCENT  David 3:20:13 M2M 54 . 6.323 09:29
404 21291 HOLANDER  Claire 3:20:46 SEF 23 . 6.306 09:31
405 21292 BECCART  Perrine 3:20:46 SEF 24 . 6.306 09:31
406 21191 DOLLE  Coralie 3:20:55 M0F 20 . 6.301 09:31
407 21886 LANOY  Maite 3:20:55 SEF 25 . 6.301 09:31
408 21360 BRUSSELLE  Laetitia 3:20:55 M0F 21 . 6.301 09:31
409 21484 MARTIN  Daisy 3:20:55 SEF 26 . 6.301 09:31
410 21803 BOUTIN  Jordan 3:20:56 SEM 48 . 6.301 09:31
411 21485 WINTREBERT  Julien 3:20:56 M0M 49 . 6.301 09:31
412 21190 DOLLE  Bruno 3:20:56 M5M 15 . 6.301 09:31
413 21915 LEBLOND  MARINE 3:21:03 SEF 27 . 6.297 09:32
414 21929 BAILLEUX  Christopher 3:21:03 SEM 49 CLUB MONTIGNYNOIS 6.297 09:32
415 21940 MARQUIS  Jerome 3:21:03 M1M 63 . 6.297 09:32
416 21083 WILLIER  Renaud 3:21:25 M0M 50 . 6.285 09:33
417 21024 DOURNEL  Audrey 3:21:25 M0F 22 . 6.285 09:33
418 21891 CALAIS  DELPHINE 3:21:26 M1F 40 PICQUIGNY RUNNING CLUB 6.285 09:33
419 31097 THEETEN  Isabelle 3:21:48 M3F 15 US DUNKERQUE 6.274 09:34
420 31098 DESTEIRDT  Jean-Raymond 3:21:48 M4M 21 . 6.274 09:34
421 21898 MOBAILLY  Quentin 3:22:21 SEM 50 . 6.256 09:35
422 21056 PRUDHOMME  Veronique 3:23:36 M2F 20 Courir dans le Lumbrois 6.218 09:39
423 21423 PRUDHOMME  Francky 3:23:36 M3M 28 Courir dans le Lumbrois 6.218 09:39
424 21906 DELAUTRE  David 3:23:51 M3M 29 . 6.210 09:40
425 31102 SOULE  Zakaria 3:23:57 M1M 64 US DUNKERQUE 6.207 09:40
426 21032 MARTY  VALERIE 3:24:37 M2F 21 MARQUISE ATHLETISME 6.187 09:42
427 21080 FAIEULLE  Amandine 3:24:38 SEF 28 Entente Maritime Athlétique 6.187 09:42
428 21441 MARTY  DIDIER 3:24:38 M3M 30 . 6.187 09:42
429 21170 MAHE  Frederic 3:24:39 M1M 65 Entente Maritime Athlétique 6.186 09:42
430 21880 MASCLEF  Ludovic 3:24:49 M2M 55 . 6.181 09:42
431 21091 HERDUIN  Bertrand 3:25:51 M2M 56 . 6.150 09:45
432 21074 DHALLEINE  Nicolas 3:25:51 M1M 66 . 6.150 09:45
433 31095 GOUDENHOOFT  Mickael 3:27:46 M1M 67 US DUNKERQUE 6.093 09:51
434 21307 LECIGNE  Jerome 3:28:34 M1M 68 . 6.070 09:53
435 21298 COUDEVYLLE  Francois 3:28:39 SEM 51 . 6.068 09:53
436 21297 REVILLON  Thibaut 3:28:40 SEM 52 . 6.067 09:53
437 21985 VOISIN  Gilles 3:28:49 M0M 51 . 6.063 09:54
438 21331 VAN DAELEN  Jeremy 3:28:50 M0M 52 . 6.062 09:54
439 21072 BRUNIN  Veronique 3:29:02 M3F 16 . 6.056 09:54
440 21704 LECOMTE  David 3:29:16 M1M 69 . 6.050 09:55
441 21976 NORBERT  Steeve 3:29:17 SEM 53 . 6.049 09:55
442 21180 FRANSOIS  Caroline 3:29:17 M1F 41 . 6.049 09:55
443 21572 BONREPAUX  Agathe 3:29:17 SEF 29 . 6.049 09:55
444 21248 BOULOGNE  Franck 3:29:18 M0M 53 . 6.049 09:55
445 21073 VALLAEYS  Francoise 3:29:36 M2F 22 . 6.040 09:56
446 21045 SERGENT  Cedric 3:29:50 M1M 70 . 6.033 09:57
447 21442 PERRAULT  Johan 3:30:32 SEM 54 . 6.013 09:59
448 21355 HENNION  Mathieu 3:30:49 M0M 54 . 6.005 09:59
449 21531 MONTUY  Steve 3:30:52 M0M 55 . 6.004 10:00
450 21530 TELLIER  Julien 3:31:00 M0M 56 . 6.000 10:00
451 21923 FILLIERE  Romain 3:31:02 SEM 55 . 5.999 10:00
452 21924 FRANCOIS  Julien 3:31:09 M0M 57 . 5.996 10:00
453 21059 GOSSELIN  Sylvain 3:32:05 M4M 22 . 5.969 10:03
454 21279 PARENT  Thierry 3:32:05 M4M 23 . 5.969 10:03
455 21031 COHIN  Regis 3:32:05 M5M 16 . 5.969 10:03
456 21067 LEMAIRE  Robin 3:32:34 SEM 56 . 5.956 10:04
457 21875 FERCOT  Marion 3:32:34 SEF 30 . 5.956 10:04
458 21064 JOLY  Olivier 3:32:35 M2M 57 . 5.955 10:05
459 21065 FLAMANT  Lydian 3:32:36 M3M 31 . 5.955 10:05
460 21066 JOLY  Florence 3:32:36 M2F 23 . 5.955 10:05
461 21063 HOURDIN  Francoise 3:32:36 M2F 24 . 5.955 10:05
462 21265 QUERTAINMONT  Quentin 3:32:37 SEM 57 . 5.954 10:05
463 21068 MARTINEZ  Guillaume 3:32:37 SEM 58 . 5.954 10:05
464 21159 DOUCHEZ  David 3:32:41 M2M 58 . 5.953 10:05
465 21487 DEBOUT  Emilie 3:32:43 M0F 23 . 5.952 10:05
466 21488 STEENKESTE  Michael 3:32:43 M0M 58 . 5.952 10:05
467 21239 MENUGE  Julien 3:33:08 M1M 71 . 5.940 10:06
468 21952 VENUCCA  Anne-Claire 3:33:57 M1F 42 . 5.917 10:08
469 21793 VENUCCA  Stephane 3:33:57 M1M 72 . 5.917 10:08
470 21852 PERNES  Alice 3:35:05 SEF 31 . 5.886 10:12
471 21117 SCARPA  Anais 3:35:13 M0F 24 . 5.882 10:12
472 21936 PETITPONT  Mathieu 3:35:14 SEM 59 . 5.882 10:12
473 21115 BRUNEL  Sebastien 3:35:14 M1M 73 . 5.882 10:12
474 21235 MACON  Nicolas 3:35:15 SEM 60 . 5.882 10:12
475 21110 GALLET  Maxime 3:35:15 M0M 59 . 5.882 10:12
476 21118 LEGRAND  Alexis 3:35:15 SEM 61 . 5.882 10:12
477 21839 MERLAND  Floriane 3:36:11 SEF 32 . 5.856 10:15
478 21792 THOREL  Charlotte 3:36:42 SEF 33 . 5.842 10:16
479 21167 LEGRAND  Fabrice 3:36:58 M3M 32 . 5.835 10:17
480 21000 MARLIER  Nicolas 3:37:04 M0M 60 . 5.832 10:17
481 21001 VANDENBROUCKE  Nicolas 3:37:06 M1M 74 . 5.831 10:17
482 21253 BRASME  Pierre-Yves 3:37:06 M0M 61 . 5.831 10:17
483 21445 CHARLET  David 3:37:19 M1M 75 . 5.826 10:18
484 21053 BLOT  Ludovic 3:37:19 M2M 59 Courir dans le Lumbrois 5.826 10:18
485 21653 ANDRE  Thomas 3:38:02 ESM 2 . 5.806 10:20
486 21654 ANDRE  Jeremy 3:38:03 SEM 62 . 5.806 10:20
487 21300 QUAGEBEUR  Marie 3:38:40 M0F 25 Courir Dans le Lumbrois 5.790 10:22
488 21302 LEMORT  Matthieu 3:38:40 M0M 62 SL AS MAROLLES 5.790 10:22
489 21655 BLONDAEL  Rudy 3:41:39 SEM 63 . 5.712 10:30
490 21651 ANDRE  Guillaume 3:41:40 M2M 60 . 5.711 10:30
491 21762 LAURENT  YANNICK 3:41:43 M0M 63 . 5.710 10:30
492 21763 STROBBE  Jonathan 3:41:43 M0M 64 . 5.710 10:30
493 21096 LECU  Laurent 3:42:36 M2M 61 . 5.687 10:33
494 21378 NGUYEN  Elodie 3:43:32 M1F 43 . 5.664 10:36
495 21054 BRIQUET  Athena 3:43:32 SEF 34 . 5.664 10:36
496 21379 MULLER  Alexandre 3:43:33 M1M 76 . 5.663 10:36
497 21055 BEAUVAIS  Frederic 3:43:33 M1M 77 . 5.663 10:36
498 21822 PERONNE  Anais 3:44:30 JUF 1 . 5.639 10:38
499 21652 ANDRE  Stephanie 3:44:31 M1F 44 . 5.639 10:38
500 21821 ANDRE  Antoine 3:44:31 ESM 3 . 5.639 10:38
501 21017 DUBRULLE  Jerome 3:45:11 M2M 62 . 5.622 10:40
502 21435 DELVOYE  Florent 3:45:11 SEM 64 S/L Marquise Athlé 5.622 10:40
503 21303 FRIN  Laurent 3:45:47 M2M 63 . 5.607 10:42
504 21164 CARDON  Sylvain 3:45:47 M1M 78 . 5.607 10:42
505 21158 DAVID  Guillaume 3:46:38 SEM 65 . 5.586 10:44
506 21837 DEMOL  Clement 3:47:52 SEM 66 . 5.556 10:48
507 21730 CADEAU  Martin 3:48:21 SEM 67 . 5.544 10:49
508 21023 SANCHEZ  Pablito 3:48:22 M4M 24 Ema marquise 5.544 10:49
509 21851 ISENBRANDT  Paul 3:48:48 SEM 68 . 5.533 10:51
510 21937 MULLER  Valentin 3:49:04 SEM 69 . 5.527 10:51
511 21438 VASSET  Remi 3:49:06 SEM 70 . 5.526 10:51
512 21097 BREHIER  Guillaume 3:49:16 M1M 79 . 5.522 10:52
513 21791 KYNDT  Lionel 3:49:21 SEM 71 . 5.520 10:52
514 21120 NAVELLIER  ELODIE 3:49:29 M1F 45 . 5.517 10:53
515 21810 BOURIEZ  ALAIN 3:49:29 M5M 17 . 5.517 10:53
516 21119 DAMEZ  Sylvie 3:49:29 M2F 25 . 5.517 10:53
517 21624 PORREYE  William 3:49:29 M5M 18 . 5.517 10:53
518 21094 PRANGERE  Aurelie 3:49:41 M0F 26 Ac outreau 5.512 10:53
519 21107 TILLIER  Anne 3:49:42 M1F 46 . 5.512 10:53
520 21942 LUDOVIC  Marie 3:49:42 SEF 35 . 5.512 10:53
521 21941 DUDKIEWICZ  Marc 3:49:42 M1M 80 . 5.512 10:53
522 21095 PRANGERE  Jeremy 3:49:42 M1M 81 . 5.512 10:53
523 21168 JULIEN  Michelle 3:50:10 M2F 26 . 5.500 10:55
524 21657 DACHICOURT  Jerome 3:50:27 SEM 72 . 5.494 10:55
525 21663 TRIPLET  Celine 3:50:27 M0F 27 Ac outreau 5.494 10:55
526 21794 ADAM  Alicia 3:50:27 SEF 36 ACO 5.494 10:55
527 21969 ROSE  FREDERIC 3:50:27 M3M 33 AC OUTREAU 5.494 10:55
528 21955 DEMILLY  Jasmine 3:50:27 M1F 47 AC outreau 5.494 10:55
529 21972 RUFFINO  Sandrine 3:50:27 M2F 27 AC OUTREAU 5.494 10:55
530 21691 LEPRETRE  Corentin 3:50:27 SEM 73 . 5.494 10:55
531 21660 PUYPE  Dimitri 3:52:02 M0M 65 . 5.456 11:00
532 21421 VINCENT  Emilie 3:52:31 M1F 48 . 5.445 11:01
533 21782 COLIN  Guillaume 3:53:05 M0M 66 . 5.432 11:03
534 21734 DEDECKER  Boris 3:53:06 SEM 74 . 5.431 11:03
535 21699 ROGEAU  Jerome 3:53:06 SEM 75 . 5.431 11:03
536 21319 COLIN  Caroline 3:53:07 SEF 37 . 5.431 11:03
537 21320 ROGEAU  Aymeric 3:53:26 SEM 76 . 5.423 11:04
538 21305 GRECO  Esteban 3:54:00 SEM 77 . 5.410 11:05
539 21043 LARDET  Olivier 3:54:00 M1M 82 . 5.410 11:05
540 21223 LARDET  Laurent 3:54:00 M2M 64 . 5.410 11:05
541 21013 DESEILLE  Gautier 3:55:58 SEM 78 Boulogne AC 5.365 11:11
542 21246 QUENEHEN  Jeremy 3:55:59 SEM 79 Boulogne AC 5.365 11:11
543 21820 GUEUDRE  Fabrice 3:55:59 M1M 83 Boulogne AC 5.365 11:11
544 21007 JANDAU  Fabien 3:55:59 M2M 65 Boulogne AC 5.365 11:11
545 21040 LEBLOND  Guillaume 3:55:59 M0M 67 Boulogne AC 5.365 11:11
546 21244 VENEL  Nicolas 3:55:59 M0M 68 Boulogne AC 5.365 11:11
547 21939 EVRARD  Justine 3:55:59 SEF 38 Boulogne AC 5.365 11:11
548 21819 FICQUET  Romain 3:55:59 M0M 69 BOULOGNE-SUR-MER AC 5.365 11:11
549 21647 OLLEVILLE  Julien 3:56:00 M0M 70 Boulogne ac 5.364 11:11
550 21125 DUBOIS  Laetitia 3:59:10 SEF 39 . 5.293 11:20
551 21042 DECLERCQ  Diana 3:59:10 M0F 28 . 5.293 11:20
552 21111 JASON  Etienne 4:00:29 M0M 71 . 5.264 11:24
553 21112 HERVE  Erwan 4:00:30 M2M 66 . 5.264 11:24
554 21327 ANDRE  Beatrice 4:00:49 M3F 17 stade longuenessois 5.257 11:25
555 21567 SAMOY  Alexis 4:04:59 SEM 80 . 5.168 11:37
556 21240 BOSTAN  Mustafa 4:10:19 M2M 67 . 5.058 11:52
557 21552 LEROY  Tanguy 4:19:43 SEM 81 . 4.875 12:19
558 21590 THELIER  Anthonin 4:20:23 SEM 82 . 4.862 12:20
559 21586 HERMAN  Cyril 4:20:26 SEM 83 . 4.861 12:21
560 21273 SCHOCH  Jean Thierry 4:21:31 M3M 34 . 4.841 12:24
561 21227 LECERF  Valentin 4:23:17 SEM 84 . 4.809 12:29
562 21238 GLAISE  Ludovic 4:23:18 SEM 85 . 4.808 12:29
563 21247 REUMAUX  Vianney 4:23:24 SEM 86 . 4.806 12:29
564 21243 HENNEBICQ  Jeffrey 4:25:18 M0M 72 . 4.772 12:34
565 21241 AUGEM  Xavier 4:25:18 SEM 87 . 4.772 12:34
566 21757 PETREL  Alexandre 4:27:56 SEM 88 . 4.725 12:42
567 21127 DELDICQUE  Thibaut 4:29:01 SEM 89 . 4.706 12:45
568 21270 BODDAERT  Alexis 4:33:17 SEM 90 . 4.633 12:57
569 21443 COUSIN  Geoffrey 4:34:53 SEM 91 . 4.606 13:02
570 21367 COMYN  Leandre 4:34:53 SEM 92 . 4.606 13:02
571 21735 POISSONNIER  Maxime 4:34:54 SEM 93 . 4.605 13:02
572 21124 RYCKEBUSCH  Valentin 4:37:37 SEM 94 ASPTT 4.560 13:09
573 21545 LEVECQUE  Vincent 4:40:50 M0M 73 Osa 4.508 13:19
574 21187 BULTEL  Gregory 4:40:58 SEM 95 . 4.506 13:19
575 21838 DEBERT  Benjamin 4:41:00 SEM 96 . 4.505 13:19
576 21163 ALEXANDRE  Sebastien 4:41:04 M0M 74 . 4.504 13:19
577 21440 DUBUCHE  Jeremy 4:42:30 SEM 97 . 4.481 13:23
578 21988 DHESSE  Virginie 4:42:45 M1F 49 RCA Arras 4.477 13:24
579 21990 DHESSE  Cecile 4:42:45 M2F 28 . 4.477 13:24
580 22001 WIART  Sebastien 4:45:39 M1M 84 . 4.432 13:32
581 21350 HOCHART  Samuel 4:45:40 M1M 85 . 4.432 13:32
582 21351 VENRIES  Sandrine 4:45:40 M2F 29 . 4.432 13:32
583 21189 BLANCHARD  XAVIER 4:46:10 M2M 68 . 4.424 13:34
584 21943 BALENGHIEN  Francois 4:46:10 M2M 69 . 4.424 13:34
585 21188 DUBOIS  Cedric 4:46:11 M2M 70 . 4.424 13:34
586 21176 DEMARCQ  Benoit 4:46:11 M3M 35 . 4.424 13:34
587 21178 SCHELFHOUT  Dirk 4:46:11 M3M 36 . 4.424 13:34
588 21991 DHESSE  Jerome 4:49:47 M2M 71 . 4.369 13:44
589 21989 DHESSE  Alexandre 4:49:47 M2M 72 . 4.369 13:44
590 21854 MARTIN  Guillaume 4:56:21 SEM 98 . 4.272 14:03
591 21365 COMYN  Antoine 4:57:09 M5M 19 . 4.260 14:05
592 21489 LACROIX  Gonzague 5:02:47 M2M 73 . 4.181 14:21
593 21729 VERHILLE  Isabelle 5:04:22 M3F 18 Stade Longuenessois 4.159 14:25
594 21996 FLAMENT  Christiane 5:04:22 M5F 6 Stade longuenessois 4.159 14:25
595 21893 LORGEOUX  Elodie 5:06:27 SEF 40 . 4.131 14:31
596 21895 HURET  Julien 5:06:35 SEM 99 . 4.129 14:32
597 21896 CAZIER  Florent 5:06:40 SEM 100 . 4.128 14:32
598 21858 SOOTS  Lideric 5:07:31 SEM 101 . 4.117 14:34
599 21857 DECROCK  Leo 5:07:31 ESM 4 SC HAZEBROUCK 4.117 14:34
600 21005 MORDACQ  Benoit 5:07:46 M3M 37 . 4.114 14:35
601 21338 VOLPOET  Martyguy 5:07:46 M1M 86 . 4.114 14:35
602 21783 MENDY  Joffrey 5:07:48 SEM 102 . 4.113 14:35
603 21172 VANDOMME  Julien 5:07:48 M1M 87 . 4.113 14:35
604 21195 DOOZE  Constance 5:07:48 SEF 41 Stade longuenessois 4.113 14:35
605 21035 CATEZ  Gregory 5:09:06 M2M 74 . 4.096 14:39
606 21336 REBERGUE  Jean-Francois 5:09:20 M1M 88 . 4.093 14:40
607 21025 PONTFORT  Regis 5:09:23 M1M 89 . 4.092 14:40
608 21726 HOLUIGUE  Sabine 5:09:47 M2F 30 Stade Longuenessois 4.087 14:41
609 21725 THESSE  YANN 5:09:47 M2M 75 Stade Longuenessois 4.087 14:41
610 21016 DERISBOURG  Virginie 5:09:51 M2F 31 . 4.086 14:41
611 21034 CRETON  Guy 5:10:20 M3M 38 . 4.079 14:42
612 21855 MERCHEZ  Julien 5:11:37 SEM 103 . 4.063 14:46
613 21832 DEGARDIN  David 5:11:39 M0M 75 . 4.062 14:46
614 21102 PRUVOST  Robin 5:11:45 M1M 90 . 4.061 14:46
615 21177 VERMEIL  Yves 5:11:50 M4M 25 . 4.060 14:47
616 21884 HUE  Remy 5:13:12 SEM 104 . 4.042 14:51
617 21871 THOREL  Alexandre 5:13:49 SEM 105 . 4.034 14:52
618 21872 WAEKENS  Aline 5:13:49 SEF 42 . 4.034 14:52
619 21769 JOURDAIN  Alexy 5:14:14 SEM 106 . 4.029 14:54
620 21850 ENGELAERE  Alexis 5:14:48 SEM 107 . 4.022 14:55
621 21862 BELLEC  Johann 5:15:28 M2M 76 . 4.013 14:57
622 21834 NORMANT  Alain 5:15:28 M4M 26 . 4.013 14:57
623 21977 DEPANNEMAECKER  GAELLE 5:19:24 M2F 32 . 3.964 15:08
624 21978 MARTIN  SOPHIE 5:19:24 M2F 33 . 3.964 15:08
625 21836 DESPREZ  Baptiste 5:19:55 ESM 5 . 3.957 15:10
626 21069 ETCHEPARE  Jean-Philippe 5:22:27 M0M 76 . 3.926 15:17
627 21639 VANCAUWENBERGHE  Luc 5:35:43 M2M 77 . 3.771 15:55
628 21151 ARROQUI  Anne Sophie 5:35:43 M3F 19 . 3.771 15:55
629 21968 BUCKMAN  Julie 5:35:45 SEF 43 . 3.771 15:55
630 21152 ARROQUI  Mathilde 5:35:45 SEF 44 . 3.771 15:55
631 21148 LEFEBVRE  Francois 5:35:45 M2M 78 . 3.771 15:55
632 21160 BUCKMAN  LAETITIA 5:35:45 M2F 34 . 3.771 15:55
633 21149 LEFEBVRE  Elizabeth 5:35:46 M3F 20 . 3.770 15:55
634 21150 ARROQUI  Philippe 5:35:47 M3M 39 . 3.770 15:55
635 21161 BRUNOT  Yoann 5:35:59 M2M 79 . 3.768 15:55
636 21672 DEPANNEMAECKER  Eric 5:35:59 M2M 80 . 3.768 15:55

.